sensor_id;sensor_type;location;lat;lon;timestamp;P1;durP1;ratioP1;P2;durP2;ratioP2
3050;SDS011;1535;51.098;6.414;2023-07-02T00:02:20;9.57;;;9.17;;
3050;SDS011;1535;51.098;6.414;2023-07-02T00:04:47;8.10;;;7.80;;
3050;SDS011;1535;51.098;6.414;2023-07-02T00:07:14;8.47;;;8.17;;
3050;SDS011;1535;51.098;6.414;2023-07-02T00:09:41;9.23;;;8.63;;
3050;SDS011;1535;51.098;6.414;2023-07-02T00:12:09;9.93;;;9.33;;
3050;SDS011;1535;51.098;6.414;2023-07-02T00:14:36;8.23;;;7.93;;
3050;SDS011;1535;51.098;6.414;2023-07-02T00:17:03;23.30;;;9.00;;
3050;SDS011;1535;51.098;6.414;2023-07-02T00:19:30;10.93;;;10.03;;
3050;SDS011;1535;51.098;6.414;2023-07-02T00:21:57;10.33;;;9.83;;
3050;SDS011;1535;51.098;6.414;2023-07-02T00:24:23;9.27;;;8.90;;
3050;SDS011;1535;51.098;6.414;2023-07-02T00:26:50;10.30;;;9.77;;
3050;SDS011;1535;51.098;6.414;2023-07-02T00:29:18;10.40;;;9.67;;
3050;SDS011;1535;51.098;6.414;2023-07-02T00:31:45;10.13;;;9.53;;
3050;SDS011;1535;51.098;6.414;2023-07-02T00:34:12;10.03;;;9.43;;
3050;SDS011;1535;51.098;6.414;2023-07-02T00:36:39;11.30;;;10.77;;
3050;SDS011;1535;51.098;6.414;2023-07-02T00:39:06;8.70;;;8.40;;
3050;SDS011;1535;51.098;6.414;2023-07-02T00:41:33;11.80;;;10.87;;
3050;SDS011;1535;51.098;6.414;2023-07-02T00:44:00;10.23;;;9.60;;
3050;SDS011;1535;51.098;6.414;2023-07-02T00:46:29;11.60;;;10.73;;
3050;SDS011;1535;51.098;6.414;2023-07-02T00:48:57;9.97;;;9.47;;
3050;SDS011;1535;51.098;6.414;2023-07-02T00:51:26;10.10;;;9.60;;
3050;SDS011;1535;51.098;6.414;2023-07-02T00:53:54;10.37;;;9.77;;
3050;SDS011;1535;51.098;6.414;2023-07-02T00:56:22;8.90;;;8.50;;
3050;SDS011;1535;51.098;6.414;2023-07-02T00:58:50;15.63;;;10.17;;
3050;SDS011;1535;51.098;6.414;2023-07-02T01:01:19;9.50;;;8.87;;
3050;SDS011;1535;51.098;6.414;2023-07-02T01:03:51;9.73;;;8.90;;
3050;SDS011;1535;51.098;6.414;2023-07-02T01:06:20;14.53;;;11.33;;
3050;SDS011;1535;51.098;6.414;2023-07-02T01:08:52;9.00;;;8.50;;
3050;SDS011;1535;51.098;6.414;2023-07-02T01:11:23;11.10;;;10.30;;
3050;SDS011;1535;51.098;6.414;2023-07-02T01:13:53;8.00;;;7.70;;
3050;SDS011;1535;51.098;6.414;2023-07-02T01:16:22;8.90;;;8.50;;
3050;SDS011;1535;51.098;6.414;2023-07-02T01:18:51;8.27;;;8.00;;
3050;SDS011;1535;51.098;6.414;2023-07-02T01:21:21;8.03;;;7.73;;
3050;SDS011;1535;51.098;6.414;2023-07-02T01:23:50;9.43;;;8.73;;
3050;SDS011;1535;51.098;6.414;2023-07-02T01:26:17;11.03;;;10.03;;
3050;SDS011;1535;51.098;6.414;2023-07-02T01:28:44;12.00;;;10.73;;
3050;SDS011;1535;51.098;6.414;2023-07-02T01:31:11;8.70;;;8.10;;
3050;SDS011;1535;51.098;6.414;2023-07-02T01:33:39;9.30;;;8.57;;
3050;SDS011;1535;51.098;6.414;2023-07-02T01:36:06;9.90;;;9.20;;
3050;SDS011;1535;51.098;6.414;2023-07-02T01:38:35;9.17;;;8.57;;
3050;SDS011;1535;51.098;6.414;2023-07-02T01:41:03;9.97;;;9.13;;
3050;SDS011;1535;51.098;6.414;2023-07-02T01:43:29;7.90;;;7.60;;
3050;SDS011;1535;51.098;6.414;2023-07-02T01:45:56;10.73;;;9.83;;
3050;SDS011;1535;51.098;6.414;2023-07-02T01:48:25;9.60;;;8.77;;
3050;SDS011;1535;51.098;6.414;2023-07-02T01:50:52;8.60;;;8.00;;
3050;SDS011;1535;51.098;6.414;2023-07-02T01:53:19;11.63;;;9.23;;
3050;SDS011;1535;51.098;6.414;2023-07-02T01:55:47;7.67;;;7.27;;
3050;SDS011;1535;51.098;6.414;2023-07-02T01:58:15;8.00;;;7.70;;
3050;SDS011;1535;51.098;6.414;2023-07-02T02:00:42;7.40;;;7.10;;
3050;SDS011;1535;51.098;6.414;2023-07-02T02:03:09;9.20;;;8.60;;
3050;SDS011;1535;51.098;6.414;2023-07-02T02:05:36;8.17;;;7.60;;
3050;SDS011;1535;51.098;6.414;2023-07-02T02:08:03;25.07;;;11.77;;
3050;SDS011;1535;51.098;6.414;2023-07-02T02:10:31;9.37;;;8.50;;
3050;SDS011;1535;51.098;6.414;2023-07-02T02:12:59;9.90;;;8.53;;
3050;SDS011;1535;51.098;6.414;2023-07-02T02:15:26;14.03;;;8.67;;
3050;SDS011;1535;51.098;6.414;2023-07-02T02:17:53;7.33;;;6.93;;
3050;SDS011;1535;51.098;6.414;2023-07-02T02:20:21;12.10;;;8.83;;
3050;SDS011;1535;51.098;6.414;2023-07-02T02:22:48;9.00;;;8.30;;
3050;SDS011;1535;51.098;6.414;2023-07-02T02:25:14;17.77;;;10.87;;
3050;SDS011;1535;51.098;6.414;2023-07-02T02:27:41;11.77;;;10.60;;
3050;SDS011;1535;51.098;6.414;2023-07-02T02:30:10;7.20;;;6.80;;
3050;SDS011;1535;51.098;6.414;2023-07-02T02:32:37;15.73;;;12.23;;
3050;SDS011;1535;51.098;6.414;2023-07-02T02:35:04;8.10;;;7.60;;
3050;SDS011;1535;51.098;6.414;2023-07-02T02:37:33;9.30;;;8.43;;
3050;SDS011;1535;51.098;6.414;2023-07-02T02:40:00;9.30;;;8.70;;
3050;SDS011;1535;51.098;6.414;2023-07-02T02:42:27;8.33;;;7.83;;
3050;SDS011;1535;51.098;6.414;2023-07-02T02:44:53;7.53;;;7.13;;
3050;SDS011;1535;51.098;6.414;2023-07-02T02:47:22;16.43;;;12.13;;
3050;SDS011;1535;51.098;6.414;2023-07-02T02:49:49;8.57;;;8.00;;
3050;SDS011;1535;51.098;6.414;2023-07-02T02:52:16;13.70;;;11.37;;
3050;SDS011;1535;51.098;6.414;2023-07-02T02:54:43;11.23;;;8.70;;
3050;SDS011;1535;51.098;6.414;2023-07-02T02:57:10;8.30;;;7.90;;
3050;SDS011;1535;51.098;6.414;2023-07-02T02:59:38;16.00;;;12.03;;
3050;SDS011;1535;51.098;6.414;2023-07-02T03:02:05;25.10;;;14.73;;
3050;SDS011;1535;51.098;6.414;2023-07-02T03:04:34;16.00;;;11.53;;
3050;SDS011;1535;51.098;6.414;2023-07-02T03:07:06;11.67;;;10.57;;
3050;SDS011;1535;51.098;6.414;2023-07-02T03:09:33;10.27;;;9.30;;
3050;SDS011;1535;51.098;6.414;2023-07-02T03:11:59;14.07;;;12.63;;
3050;SDS011;1535;51.098;6.414;2023-07-02T03:14:26;14.60;;;9.40;;
3050;SDS011;1535;51.098;6.414;2023-07-02T03:16:54;10.30;;;9.50;;
3050;SDS011;1535;51.098;6.414;2023-07-02T03:19:21;9.87;;;9.07;;
3050;SDS011;1535;51.098;6.414;2023-07-02T03:21:49;15.10;;;10.30;;
3050;SDS011;1535;51.098;6.414;2023-07-02T03:24:17;19.43;;;13.60;;
3050;SDS011;1535;51.098;6.414;2023-07-02T03:26:43;8.80;;;8.30;;
3050;SDS011;1535;51.098;6.414;2023-07-02T03:29:10;12.20;;;10.33;;
3050;SDS011;1535;51.098;6.414;2023-07-02T03:31:37;6.93;;;6.63;;
3050;SDS011;1535;51.098;6.414;2023-07-02T03:34:06;11.30;;;10.07;;
3050;SDS011;1535;51.098;6.414;2023-07-02T03:36:34;8.50;;;7.87;;
3050;SDS011;1535;51.098;6.414;2023-07-02T03:39:02;11.67;;;10.57;;
3050;SDS011;1535;51.098;6.414;2023-07-02T03:41:29;12.33;;;9.60;;
3050;SDS011;1535;51.098;6.414;2023-07-02T03:43:57;8.83;;;7.17;;
3050;SDS011;1535;51.098;6.414;2023-07-02T03:46:24;11.13;;;10.17;;
3050;SDS011;1535;51.098;6.414;2023-07-02T03:48:51;10.03;;;9.03;;
3050;SDS011;1535;51.098;6.414;2023-07-02T03:51:18;7.10;;;6.60;;
3050;SDS011;1535;51.098;6.414;2023-07-02T03:53:45;9.47;;;8.57;;
3050;SDS011;1535;51.098;6.414;2023-07-02T03:56:13;7.63;;;7.13;;
3050;SDS011;1535;51.098;6.414;2023-07-02T03:58:40;8.30;;;7.73;;
3050;SDS011;1535;51.098;6.414;2023-07-02T04:01:07;9.13;;;8.73;;
3050;SDS011;1535;51.098;6.414;2023-07-02T04:03:34;8.83;;;8.23;;
3050;SDS011;1535;51.098;6.414;2023-07-02T04:06:01;10.83;;;8.23;;
3050;SDS011;1535;51.098;6.414;2023-07-02T04:08:30;14.50;;;7.63;;
3050;SDS011;1535;51.098;6.414;2023-07-02T04:10:57;20.37;;;13.40;;
3050;SDS011;1535;51.098;6.414;2023-07-02T04:13:25;15.73;;;10.43;;
3050;SDS011;1535;51.098;6.414;2023-07-02T04:15:53;8.97;;;8.37;;
3050;SDS011;1535;51.098;6.414;2023-07-02T04:18:20;8.80;;;8.03;;
3050;SDS011;1535;51.098;6.414;2023-07-02T04:20:47;6.77;;;6.50;;
3050;SDS011;1535;51.098;6.414;2023-07-02T04:23:14;10.47;;;9.27;;
3050;SDS011;1535;51.098;6.414;2023-07-02T04:25:41;12.70;;;8.87;;
3050;SDS011;1535;51.098;6.414;2023-07-02T04:28:08;19.10;;;10.93;;
3050;SDS011;1535;51.098;6.414;2023-07-02T04:30:36;11.63;;;10.43;;
3050;SDS011;1535;51.098;6.414;2023-07-02T04:33:03;8.97;;;8.40;;
3050;SDS011;1535;51.098;6.414;2023-07-02T04:35:30;9.10;;;8.50;;
3050;SDS011;1535;51.098;6.414;2023-07-02T04:37:58;8.83;;;8.27;;
3050;SDS011;1535;51.098;6.414;2023-07-02T04:40:24;9.90;;;8.73;;
3050;SDS011;1535;51.098;6.414;2023-07-02T04:42:52;13.00;;;10.90;;
3050;SDS011;1535;51.098;6.414;2023-07-02T04:45:23;12.53;;;11.40;;
3050;SDS011;1535;51.098;6.414;2023-07-02T04:47:52;9.33;;;8.53;;
3050;SDS011;1535;51.098;6.414;2023-07-02T04:50:19;19.93;;;14.90;;
3050;SDS011;1535;51.098;6.414;2023-07-02T04:52:45;10.80;;;9.87;;
3050;SDS011;1535;51.098;6.414;2023-07-02T04:55:12;6.97;;;6.73;;
3050;SDS011;1535;51.098;6.414;2023-07-02T04:57:39;24.87;;;13.47;;
3050;SDS011;1535;51.098;6.414;2023-07-02T05:00:06;12.37;;;8.33;;
3050;SDS011;1535;51.098;6.414;2023-07-02T05:02:34;19.07;;;15.10;;
3050;SDS011;1535;51.098;6.414;2023-07-02T05:05:02;12.87;;;11.70;;
3050;SDS011;1535;51.098;6.414;2023-07-02T05:07:29;13.20;;;9.50;;
3050;SDS011;1535;51.098;6.414;2023-07-02T05:09:57;16.33;;;12.10;;
3050;SDS011;1535;51.098;6.414;2023-07-02T05:12:24;21.93;;;14.10;;
3050;SDS011;1535;51.098;6.414;2023-07-02T05:14:51;14.33;;;12.83;;
3050;SDS011;1535;51.098;6.414;2023-07-02T05:17:17;10.73;;;9.97;;
3050;SDS011;1535;51.098;6.414;2023-07-02T05:19:44;16.20;;;13.13;;
3050;SDS011;1535;51.098;6.414;2023-07-02T05:22:13;11.83;;;10.73;;
3050;SDS011;1535;51.098;6.414;2023-07-02T05:24:39;13.63;;;12.30;;
3050;SDS011;1535;51.098;6.414;2023-07-02T05:27:07;29.23;;;17.97;;
3050;SDS011;1535;51.098;6.414;2023-07-02T05:29:34;11.30;;;10.60;;
3050;SDS011;1535;51.098;6.414;2023-07-02T05:32:00;11.40;;;10.53;;
3050;SDS011;1535;51.098;6.414;2023-07-02T05:34:27;12.03;;;11.03;;
3050;SDS011;1535;51.098;6.414;2023-07-02T05:36:54;11.53;;;10.73;;
3050;SDS011;1535;51.098;6.414;2023-07-02T05:39:22;18.20;;;14.70;;
3050;SDS011;1535;51.098;6.414;2023-07-02T05:41:49;17.13;;;15.57;;
3050;SDS011;1535;51.098;6.414;2023-07-02T05:44:16;33.27;;;16.90;;
3050;SDS011;1535;51.098;6.414;2023-07-02T05:46:44;13.00;;;12.20;;
3050;SDS011;1535;51.098;6.414;2023-07-02T05:49:11;25.20;;;15.07;;
3050;SDS011;1535;51.098;6.414;2023-07-02T05:51:38;23.70;;;16.27;;
3050;SDS011;1535;51.098;6.414;2023-07-02T05:54:05;25.63;;;18.30;;
3050;SDS011;1535;51.098;6.414;2023-07-02T05:56:33;29.57;;;19.43;;
3050;SDS011;1535;51.098;6.414;2023-07-02T05:59:00;11.20;;;10.40;;
3050;SDS011;1535;51.098;6.414;2023-07-02T06:01:28;12.50;;;11.70;;
3050;SDS011;1535;51.098;6.414;2023-07-02T06:03:55;12.83;;;11.70;;
3050;SDS011;1535;51.098;6.414;2023-07-02T06:06:22;27.10;;;17.50;;
3050;SDS011;1535;51.098;6.414;2023-07-02T06:08:49;12.20;;;11.50;;
3050;SDS011;1535;51.098;6.414;2023-07-02T06:11:16;19.23;;;15.50;;
3050;SDS011;1535;51.098;6.414;2023-07-02T06:13:45;11.57;;;10.27;;
3050;SDS011;1535;51.098;6.414;2023-07-02T06:16:12;14.00;;;13.00;;
3050;SDS011;1535;51.098;6.414;2023-07-02T06:18:38;13.87;;;12.80;;
3050;SDS011;1535;51.098;6.414;2023-07-02T06:21:06;18.97;;;17.07;;
3050;SDS011;1535;51.098;6.414;2023-07-02T06:23:39;14.90;;;13.83;;
3050;SDS011;1535;51.098;6.414;2023-07-02T06:26:06;13.60;;;12.60;;
3050;SDS011;1535;51.098;6.414;2023-07-02T06:28:33;15.60;;;14.40;;
3050;SDS011;1535;51.098;6.414;2023-07-02T06:31:02;14.57;;;13.60;;
3050;SDS011;1535;51.098;6.414;2023-07-02T06:33:29;13.60;;;13.00;;
3050;SDS011;1535;51.098;6.414;2023-07-02T06:35:56;15.83;;;14.80;;
3050;SDS011;1535;51.098;6.414;2023-07-02T06:38:23;14.57;;;13.30;;
3050;SDS011;1535;51.098;6.414;2023-07-02T06:40:50;16.03;;;14.37;;
3050;SDS011;1535;51.098;6.414;2023-07-02T06:43:17;15.90;;;14.37;;
3050;SDS011;1535;51.098;6.414;2023-07-02T06:45:44;12.70;;;12.10;;
3050;SDS011;1535;51.098;6.414;2023-07-02T06:48:12;17.33;;;15.60;;
3050;SDS011;1535;51.098;6.414;2023-07-02T06:50:43;20.73;;;18.60;;
3050;SDS011;1535;51.098;6.414;2023-07-02T06:53:10;18.63;;;16.87;;
3050;SDS011;1535;51.098;6.414;2023-07-02T06:55:37;23.93;;;18.20;;
3050;SDS011;1535;51.098;6.414;2023-07-02T06:58:04;20.03;;;17.87;;
3050;SDS011;1535;51.098;6.414;2023-07-02T07:00:32;18.13;;;15.20;;
3050;SDS011;1535;51.098;6.414;2023-07-02T07:03:01;23.13;;;19.17;;
3050;SDS011;1535;51.098;6.414;2023-07-02T07:05:29;19.90;;;14.73;;
3050;SDS011;1535;51.098;6.414;2023-07-02T07:07:56;14.50;;;13.10;;
3050;SDS011;1535;51.098;6.414;2023-07-02T07:10:24;26.20;;;18.13;;
3050;SDS011;1535;51.098;6.414;2023-07-02T07:12:51;14.70;;;13.40;;
3050;SDS011;1535;51.098;6.414;2023-07-02T07:15:18;16.43;;;13.03;;
3050;SDS011;1535;51.098;6.414;2023-07-02T07:17:45;24.73;;;14.50;;
3050;SDS011;1535;51.098;6.414;2023-07-02T07:20:13;13.87;;;12.33;;
3050;SDS011;1535;51.098;6.414;2023-07-02T07:22:42;16.43;;;15.03;;
3050;SDS011;1535;51.098;6.414;2023-07-02T07:25:09;16.43;;;12.87;;
3050;SDS011;1535;51.098;6.414;2023-07-02T07:27:36;11.70;;;10.63;;
3050;SDS011;1535;51.098;6.414;2023-07-02T07:30:03;14.30;;;13.30;;
3050;SDS011;1535;51.098;6.414;2023-07-02T07:32:31;13.93;;;12.63;;
3050;SDS011;1535;51.098;6.414;2023-07-02T07:34:59;15.87;;;14.03;;
3050;SDS011;1535;51.098;6.414;2023-07-02T07:37:26;14.73;;;13.93;;
3050;SDS011;1535;51.098;6.414;2023-07-02T07:39:54;12.10;;;11.50;;
3050;SDS011;1535;51.098;6.414;2023-07-02T07:42:22;15.70;;;14.17;;
3050;SDS011;1535;51.098;6.414;2023-07-02T07:44:48;15.83;;;14.23;;
3050;SDS011;1535;51.098;6.414;2023-07-02T07:47:15;16.37;;;14.87;;
3050;SDS011;1535;51.098;6.414;2023-07-02T07:49:42;12.27;;;11.77;;
3050;SDS011;1535;51.098;6.414;2023-07-02T07:52:09;14.50;;;13.30;;
3050;SDS011;1535;51.098;6.414;2023-07-02T07:54:36;38.93;;;16.30;;
3050;SDS011;1535;51.098;6.414;2023-07-02T07:57:05;14.60;;;13.70;;
3050;SDS011;1535;51.098;6.414;2023-07-02T07:59:32;14.20;;;13.10;;
3050;SDS011;1535;51.098;6.414;2023-07-02T08:01:59;12.53;;;11.97;;
3050;SDS011;1535;51.098;6.414;2023-07-02T08:04:26;16.97;;;15.80;;
3050;SDS011;1535;51.098;6.414;2023-07-02T08:06:53;12.60;;;12.00;;
3050;SDS011;1535;51.098;6.414;2023-07-02T08:09:21;21.70;;;18.20;;
3050;SDS011;1535;51.098;6.414;2023-07-02T08:11:49;17.73;;;16.07;;
3050;SDS011;1535;51.098;6.414;2023-07-02T08:14:17;20.40;;;18.50;;
3050;SDS011;1535;51.098;6.414;2023-07-02T08:16:44;19.20;;;14.77;;
3050;SDS011;1535;51.098;6.414;2023-07-02T08:19:12;13.93;;;13.03;;
3050;SDS011;1535;51.098;6.414;2023-07-02T08:21:38;12.03;;;11.33;;
3050;SDS011;1535;51.098;6.414;2023-07-02T08:24:06;12.63;;;11.90;;
3050;SDS011;1535;51.098;6.414;2023-07-02T08:26:32;16.13;;;14.80;;
3050;SDS011;1535;51.098;6.414;2023-07-02T08:28:59;16.57;;;15.33;;
3050;SDS011;1535;51.098;6.414;2023-07-02T08:31:29;14.43;;;13.43;;
3050;SDS011;1535;51.098;6.414;2023-07-02T08:33:56;16.87;;;15.33;;
3050;SDS011;1535;51.098;6.414;2023-07-02T08:36:22;17.43;;;14.30;;
3050;SDS011;1535;51.098;6.414;2023-07-02T08:38:50;37.80;;;15.77;;
3050;SDS011;1535;51.098;6.414;2023-07-02T08:41:17;18.47;;;16.93;;
3050;SDS011;1535;51.098;6.414;2023-07-02T08:43:43;16.53;;;15.17;;
3050;SDS011;1535;51.098;6.414;2023-07-02T08:46:10;14.63;;;13.70;;
3050;SDS011;1535;51.098;6.414;2023-07-02T08:48:39;12.47;;;11.87;;
3050;SDS011;1535;51.098;6.414;2023-07-02T08:51:06;13.23;;;12.50;;
3050;SDS011;1535;51.098;6.414;2023-07-02T08:53:33;17.47;;;15.90;;
3050;SDS011;1535;51.098;6.414;2023-07-02T08:56:01;16.90;;;15.20;;
3050;SDS011;1535;51.098;6.414;2023-07-02T08:58:30;16.50;;;14.77;;
3050;SDS011;1535;51.098;6.414;2023-07-02T09:01:04;11.57;;;11.00;;
3050;SDS011;1535;51.098;6.414;2023-07-02T09:03:34;17.60;;;16.20;;
3050;SDS011;1535;51.098;6.414;2023-07-02T09:06:04;17.53;;;16.30;;
3050;SDS011;1535;51.098;6.414;2023-07-02T09:08:31;17.53;;;16.00;;
3050;SDS011;1535;51.098;6.414;2023-07-02T09:11:06;16.07;;;13.97;;
3050;SDS011;1535;51.098;6.414;2023-07-02T09:13:46;22.23;;;16.50;;
3050;SDS011;1535;51.098;6.414;2023-07-02T09:16:20;13.73;;;12.70;;
3050;SDS011;1535;51.098;6.414;2023-07-02T09:18:59;14.67;;;13.67;;
3050;SDS011;1535;51.098;6.414;2023-07-02T09:21:37;14.93;;;13.80;;
3050;SDS011;1535;51.098;6.414;2023-07-02T09:24:12;14.03;;;13.10;;
3050;SDS011;1535;51.098;6.414;2023-07-02T09:26:44;10.10;;;9.70;;
3050;SDS011;1535;51.098;6.414;2023-07-02T09:29:13;15.80;;;14.40;;
3050;SDS011;1535;51.098;6.414;2023-07-02T09:31:44;18.57;;;16.87;;
3050;SDS011;1535;51.098;6.414;2023-07-02T09:34:11;18.23;;;16.83;;
3050;SDS011;1535;51.098;6.414;2023-07-02T09:36:39;13.77;;;12.97;;
3050;SDS011;1535;51.098;6.414;2023-07-02T09:39:07;19.33;;;16.00;;
3050;SDS011;1535;51.098;6.414;2023-07-02T09:41:35;15.90;;;14.60;;
3050;SDS011;1535;51.098;6.414;2023-07-02T09:44:02;18.03;;;16.53;;
3050;SDS011;1535;51.098;6.414;2023-07-02T09:46:29;17.90;;;16.40;;
3050;SDS011;1535;51.098;6.414;2023-07-02T09:48:58;24.67;;;18.53;;
3050;SDS011;1535;51.098;6.414;2023-07-02T09:51:25;19.80;;;17.93;;
3050;SDS011;1535;51.098;6.414;2023-07-02T09:53:53;19.77;;;16.30;;
3050;SDS011;1535;51.098;6.414;2023-07-02T09:56:21;16.13;;;14.93;;
3050;SDS011;1535;51.098;6.414;2023-07-02T09:58:48;28.17;;;18.97;;
3050;SDS011;1535;51.098;6.414;2023-07-02T10:01:15;16.03;;;14.73;;
3050;SDS011;1535;51.098;6.414;2023-07-02T10:03:42;20.70;;;18.73;;
3050;SDS011;1535;51.098;6.414;2023-07-02T10:06:08;13.63;;;12.80;;
3050;SDS011;1535;51.098;6.414;2023-07-02T10:08:35;14.17;;;12.93;;
3050;SDS011;1535;51.098;6.414;2023-07-02T10:11:12;17.93;;;16.40;;
3050;SDS011;1535;51.098;6.414;2023-07-02T10:13:39;18.70;;;16.90;;
3050;SDS011;1535;51.098;6.414;2023-07-02T10:16:07;15.60;;;14.43;;
3050;SDS011;1535;51.098;6.414;2023-07-02T10:18:34;13.57;;;12.80;;
3050;SDS011;1535;51.098;6.414;2023-07-02T10:21:12;14.07;;;13.27;;
3050;SDS011;1535;51.098;6.414;2023-07-02T10:23:40;15.30;;;14.40;;
3050;SDS011;1535;51.098;6.414;2023-07-02T10:26:14;14.07;;;13.23;;
3050;SDS011;1535;51.098;6.414;2023-07-02T10:28:42;14.47;;;13.77;;
3050;SDS011;1535;51.098;6.414;2023-07-02T10:31:19;13.60;;;12.50;;
3050;SDS011;1535;51.098;6.414;2023-07-02T10:33:47;17.27;;;15.97;;
3050;SDS011;1535;51.098;6.414;2023-07-02T10:36:18;16.67;;;15.47;;
3050;SDS011;1535;51.098;6.414;2023-07-02T10:38:46;14.93;;;13.90;;
3050;SDS011;1535;51.098;6.414;2023-07-02T10:41:24;23.37;;;17.67;;
3050;SDS011;1535;51.098;6.414;2023-07-02T10:43:52;34.93;;;17.10;;
3050;SDS011;1535;51.098;6.414;2023-07-02T10:46:19;15.33;;;14.43;;
3050;SDS011;1535;51.098;6.414;2023-07-02T10:48:53;14.50;;;13.80;;
3050;SDS011;1535;51.098;6.414;2023-07-02T10:51:20;14.80;;;14.07;;
3050;SDS011;1535;51.098;6.414;2023-07-02T10:53:58;14.60;;;14.00;;
3050;SDS011;1535;51.098;6.414;2023-07-02T10:56:27;16.23;;;15.30;;
3050;SDS011;1535;51.098;6.414;2023-07-02T10:58:54;16.33;;;14.80;;
3050;SDS011;1535;51.098;6.414;2023-07-02T11:01:21;18.43;;;16.97;;
3050;SDS011;1535;51.098;6.414;2023-07-02T11:03:55;14.00;;;13.30;;
3050;SDS011;1535;51.098;6.414;2023-07-02T11:06:23;20.60;;;18.43;;
3050;SDS011;1535;51.098;6.414;2023-07-02T11:08:50;13.93;;;13.20;;
3050;SDS011;1535;51.098;6.414;2023-07-02T11:11:17;15.23;;;14.30;;
3050;SDS011;1535;51.098;6.414;2023-07-02T11:13:47;15.03;;;14.13;;
3050;SDS011;1535;51.098;6.414;2023-07-02T11:16:19;14.40;;;13.50;;
3050;SDS011;1535;51.098;6.414;2023-07-02T11:18:49;15.27;;;14.43;;
3050;SDS011;1535;51.098;6.414;2023-07-02T11:21:16;14.80;;;14.10;;
3050;SDS011;1535;51.098;6.414;2023-07-02T11:23:43;15.63;;;14.80;;
3050;SDS011;1535;51.098;6.414;2023-07-02T11:26:11;19.27;;;17.83;;
3050;SDS011;1535;51.098;6.414;2023-07-02T11:28:48;17.03;;;15.93;;
3050;SDS011;1535;51.098;6.414;2023-07-02T11:31:25;17.10;;;15.30;;
3050;SDS011;1535;51.098;6.414;2023-07-02T11:33:52;15.13;;;14.43;;
3050;SDS011;1535;51.098;6.414;2023-07-02T11:36:21;15.80;;;14.90;;
3050;SDS011;1535;51.098;6.414;2023-07-02T11:38:50;22.03;;;15.33;;
3050;SDS011;1535;51.098;6.414;2023-07-02T11:41:17;19.47;;;18.07;;
3050;SDS011;1535;51.098;6.414;2023-07-02T11:43:45;16.37;;;15.27;;
3050;SDS011;1535;51.098;6.414;2023-07-02T11:46:13;17.67;;;16.27;;
3050;SDS011;1535;51.098;6.414;2023-07-02T11:48:40;14.03;;;13.43;;
3050;SDS011;1535;51.098;6.414;2023-07-02T11:51:07;16.97;;;15.33;;
3050;SDS011;1535;51.098;6.414;2023-07-02T11:53:34;17.20;;;15.70;;
3050;SDS011;1535;51.098;6.414;2023-07-02T11:56:01;16.03;;;14.97;;
3050;SDS011;1535;51.098;6.414;2023-07-02T11:58:28;16.27;;;15.00;;
3050;SDS011;1535;51.098;6.414;2023-07-02T12:00:56;16.63;;;15.30;;
3050;SDS011;1535;51.098;6.414;2023-07-02T12:03:24;16.03;;;14.87;;
3050;SDS011;1535;51.098;6.414;2023-07-02T12:05:51;15.30;;;14.53;;
3050;SDS011;1535;51.098;6.414;2023-07-02T12:08:18;17.10;;;15.87;;
3050;SDS011;1535;51.098;6.414;2023-07-02T12:10:46;16.83;;;15.93;;
3050;SDS011;1535;51.098;6.414;2023-07-02T12:13:13;16.97;;;15.93;;
3050;SDS011;1535;51.098;6.414;2023-07-02T12:15:39;15.40;;;14.40;;
3050;SDS011;1535;51.098;6.414;2023-07-02T12:18:06;16.07;;;15.17;;
3050;SDS011;1535;51.098;6.414;2023-07-02T12:20:35;15.07;;;14.37;;
3050;SDS011;1535;51.098;6.414;2023-07-02T12:23:03;16.23;;;14.93;;
3050;SDS011;1535;51.098;6.414;2023-07-02T12:25:30;15.33;;;14.63;;
3050;SDS011;1535;51.098;6.414;2023-07-02T12:27:57;16.07;;;15.27;;
3050;SDS011;1535;51.098;6.414;2023-07-02T12:30:24;15.87;;;14.97;;
3050;SDS011;1535;51.098;6.414;2023-07-02T12:32:50;16.17;;;15.37;;
3050;SDS011;1535;51.098;6.414;2023-07-02T12:35:18;16.20;;;15.20;;
3050;SDS011;1535;51.098;6.414;2023-07-02T12:37:47;16.83;;;15.50;;
3050;SDS011;1535;51.098;6.414;2023-07-02T12:40:14;16.33;;;15.43;;
3050;SDS011;1535;51.098;6.414;2023-07-02T12:42:41;15.93;;;14.70;;
3050;SDS011;1535;51.098;6.414;2023-07-02T12:45:10;16.30;;;15.20;;
3050;SDS011;1535;51.098;6.414;2023-07-02T12:47:37;17.70;;;15.50;;
3050;SDS011;1535;51.098;6.414;2023-07-02T12:50:05;13.17;;;12.67;;
3050;SDS011;1535;51.098;6.414;2023-07-02T12:52:32;16.10;;;15.00;;
3050;SDS011;1535;51.098;6.414;2023-07-02T12:55:02;24.90;;;16.67;;
3050;SDS011;1535;51.098;6.414;2023-07-02T12:57:29;15.53;;;14.73;;
3050;SDS011;1535;51.098;6.414;2023-07-02T12:59:56;16.00;;;14.90;;
3050;SDS011;1535;51.098;6.414;2023-07-02T13:02:23;15.40;;;14.50;;
3050;SDS011;1535;51.098;6.414;2023-07-02T13:04:51;17.83;;;16.33;;
3050;SDS011;1535;51.098;6.414;2023-07-02T13:07:18;14.83;;;14.23;;
3050;SDS011;1535;51.098;6.414;2023-07-02T13:09:45;15.00;;;14.30;;
3050;SDS011;1535;51.098;6.414;2023-07-02T13:12:14;18.57;;;16.93;;
3050;SDS011;1535;51.098;6.414;2023-07-02T13:14:40;15.70;;;14.70;;
3050;SDS011;1535;51.098;6.414;2023-07-02T13:17:08;16.47;;;15.47;;
3050;SDS011;1535;51.098;6.414;2023-07-02T13:19:35;13.87;;;13.23;;
3050;SDS011;1535;51.098;6.414;2023-07-02T13:22:03;17.70;;;16.50;;
3050;SDS011;1535;51.098;6.414;2023-07-02T13:24:32;14.93;;;13.70;;
3050;SDS011;1535;51.098;6.414;2023-07-02T13:27:01;16.50;;;15.07;;
3050;SDS011;1535;51.098;6.414;2023-07-02T13:29:32;18.27;;;16.77;;
3050;SDS011;1535;51.098;6.414;2023-07-02T13:31:58;20.17;;;18.70;;
3050;SDS011;1535;51.098;6.414;2023-07-02T13:34:26;20.20;;;18.53;;
3050;SDS011;1535;51.098;6.414;2023-07-02T13:36:53;18.63;;;17.23;;
3050;SDS011;1535;51.098;6.414;2023-07-02T13:39:20;18.63;;;17.33;;
3050;SDS011;1535;51.098;6.414;2023-07-02T13:41:47;17.03;;;16.10;;
3050;SDS011;1535;51.098;6.414;2023-07-02T13:44:15;20.43;;;16.30;;
3050;SDS011;1535;51.098;6.414;2023-07-02T13:46:44;13.37;;;12.87;;
3050;SDS011;1535;51.098;6.414;2023-07-02T13:49:11;15.57;;;14.77;;
3050;SDS011;1535;51.098;6.414;2023-07-02T13:51:39;15.93;;;14.70;;
3050;SDS011;1535;51.098;6.414;2023-07-02T13:54:06;19.03;;;17.40;;
3050;SDS011;1535;51.098;6.414;2023-07-02T13:56:32;17.20;;;16.17;;
3050;SDS011;1535;51.098;6.414;2023-07-02T13:59:01;16.43;;;15.63;;
3050;SDS011;1535;51.098;6.414;2023-07-02T14:01:29;18.83;;;17.07;;
3050;SDS011;1535;51.098;6.414;2023-07-02T14:03:57;16.00;;;15.30;;
3050;SDS011;1535;51.098;6.414;2023-07-02T14:06:24;18.00;;;16.53;;
3050;SDS011;1535;51.098;6.414;2023-07-02T14:08:51;17.43;;;16.20;;
3050;SDS011;1535;51.098;6.414;2023-07-02T14:11:19;15.97;;;15.13;;
3050;SDS011;1535;51.098;6.414;2023-07-02T14:13:47;15.93;;;14.90;;
3050;SDS011;1535;51.098;6.414;2023-07-02T14:16:15;15.60;;;14.57;;
3050;SDS011;1535;51.098;6.414;2023-07-02T14:18:42;18.10;;;16.70;;
3050;SDS011;1535;51.098;6.414;2023-07-02T14:21:10;16.63;;;15.17;;
3050;SDS011;1535;51.098;6.414;2023-07-02T14:23:37;13.60;;;13.10;;
3050;SDS011;1535;51.098;6.414;2023-07-02T14:26:04;17.57;;;16.10;;
3050;SDS011;1535;51.098;6.414;2023-07-02T14:28:31;14.33;;;13.43;;
3050;SDS011;1535;51.098;6.414;2023-07-02T14:30:58;15.90;;;14.63;;
3050;SDS011;1535;51.098;6.414;2023-07-02T14:33:27;15.70;;;14.33;;
3050;SDS011;1535;51.098;6.414;2023-07-02T14:35:56;19.10;;;17.10;;
3050;SDS011;1535;51.098;6.414;2023-07-02T14:38:23;15.43;;;14.63;;
3050;SDS011;1535;51.098;6.414;2023-07-02T14:40:50;17.83;;;16.33;;
3050;SDS011;1535;51.098;6.414;2023-07-02T14:43:18;15.13;;;14.13;;
3050;SDS011;1535;51.098;6.414;2023-07-02T14:45:47;17.03;;;15.50;;
3050;SDS011;1535;51.098;6.414;2023-07-02T14:48:15;16.00;;;14.97;;
3050;SDS011;1535;51.098;6.414;2023-07-02T14:50:47;16.37;;;15.53;;
3050;SDS011;1535;51.098;6.414;2023-07-02T14:53:15;16.40;;;15.60;;
3050;SDS011;1535;51.098;6.414;2023-07-02T14:55:42;18.30;;;16.83;;
3050;SDS011;1535;51.098;6.414;2023-07-02T14:58:09;16.63;;;15.03;;